Time,TemperatureF,DewpointF,PressureIn,WindDirection,WindDirectionDegrees,WindSpeedMPH,WindSpeedGustMPH,Humidity,HourlyPrecipIn,Conditions,Clouds,dailyrainin,SolarRadiationWatts/m^2,SoftwareType,DateUTC
2013-12-18 01:42:00,27.0,25.0,-100.00,SSE,156,3.0,4.0,93,-99.99,,,0.00,0.000000,,2013-12-18 06:42:00,
2013-12-18 01:53:00,27.0,25.0,-100.00,SSE,156,3.0,4.0,93,-99.99,,,0.00,0.000000,,2013-12-18 06:53:00,
2013-12-18 02:02:00,27.0,25.0,-100.00,SSE,156,3.0,4.0,93,-99.99,,,0.00,0.000000,,2013-12-18 07:02:00,
2013-12-18 02:12:00,27.0,25.0,-100.00,SSE,156,3.0,4.0,93,-99.99,,,0.00,0.000000,,2013-12-18 07:12:00,
2013-12-18 02:42:00,27.0,26.0,-100.00,SSW,195,3.0,5.0,95,0.00,,,0.00,0.000000,,2013-12-18 07:42:00,
2013-12-18 02:53:00,27.0,26.0,-100.00,SSW,195,3.0,5.0,95,0.00,,,0.00,0.000000,,2013-12-18 07:53:00,
2013-12-18 03:02:00,27.0,26.0,-100.00,SSW,195,3.0,5.0,95,0.00,,,0.00,0.000000,,2013-12-18 08:02:00,
2013-12-18 03:12:00,27.0,26.0,-100.00,SSW,195,3.0,5.0,95,0.00,,,0.00,0.000000,,2013-12-18 08:12:00,
2013-12-18 03:42:00,32.0,25.0,-100.00,North,359,3.0,11.0,75,0.00,,,0.00,0.000000,,2013-12-18 08:42:00,
2013-12-18 03:52:00,32.0,25.0,-100.00,North,359,3.0,11.0,75,0.00,,,0.00,0.000000,,2013-12-18 08:52:00,
2013-12-18 04:03:00,32.0,25.0,-100.00,North,359,3.0,11.0,75,0.00,,,0.00,0.000000,,2013-12-18 09:03:00,
2013-12-18 04:11:00,32.0,25.0,-100.00,North,359,3.0,11.0,75,0.00,,,0.00,0.000000,,2013-12-18 09:11:00,
2013-12-18 04:13:00,33.0,20.0,-100.00,WNW,283,10.0,23.0,59,0.00,,,0.00,0.000000,,2013-12-18 09:13:00,
2013-12-18 04:43:00,33.0,20.0,-100.00,WNW,283,10.0,23.0,59,0.00,,,0.00,0.000000,,2013-12-18 09:43:00,
2013-12-18 04:54:00,33.0,20.0,-100.00,WNW,283,10.0,23.0,59,0.00,,,0.00,0.000000,,2013-12-18 09:54:00,
2013-12-18 05:03:00,33.0,20.0,-100.00,WNW,283,10.0,23.0,59,0.00,,,0.00,0.000000,,2013-12-18 10:03:00,
2013-12-18 05:42:00,32.0,18.0,-100.00,NW,314,5.0,16.0,56,0.00,,,0.00,0.000000,,2013-12-18 10:42:00,
2013-12-18 05:52:00,32.0,18.0,-100.00,NW,314,5.0,16.0,56,0.00,,,0.00,0.000000,,2013-12-18 10:52:00,
2013-12-18 06:03:00,32.0,18.0,-100.00,NW,314,5.0,16.0,56,0.00,,,0.00,0.000000,,2013-12-18 11:03:00,
2013-12-18 06:12:00,32.0,18.0,-100.00,NW,314,5.0,16.0,56,0.00,,,0.00,0.000000,,2013-12-18 11:12:00,
2013-12-18 06:42:00,32.0,18.0,-100.00,WNW,286,6.0,14.0,56,0.00,,,0.00,0.000000,,2013-12-18 11:42:00,
2013-12-18 06:53:00,32.0,18.0,-100.00,WNW,286,6.0,14.0,56,0.00,,,0.00,0.000000,,2013-12-18 11:53:00,
2013-12-18 07:02:00,32.0,18.0,-100.00,WNW,286,6.0,14.0,56,0.00,,,0.00,0.000000,,2013-12-18 12:02:00,
2013-12-18 07:11:00,32.0,18.0,-100.00,WNW,286,6.0,14.0,56,0.00,,,0.00,0.000000,,2013-12-18 12:11:00,
2013-12-18 07:42:00,31.0,16.0,-100.00,West,271,3.0,12.0,54,0.00,,,-99.99,0.000000,,2013-12-18 12:42:00,
2013-12-18 07:53:00,31.0,16.0,-100.00,West,271,3.0,12.0,54,0.00,,,-99.99,0.000000,,2013-12-18 12:53:00,
2013-12-18 08:01:00,31.0,16.0,-100.00,West,271,3.0,12.0,54,0.00,,,-99.99,0.000000,,2013-12-18 13:01:00,
2013-12-18 08:12:00,31.0,16.0,-100.00,West,271,3.0,12.0,54,0.00,,,-99.99,0.000000,,2013-12-18 13:12:00,
2013-12-18 08:42:00,32.0,17.0,-100.00,WNW,284,5.0,17.0,53,0.00,,,0.00,13.000000,,2013-12-18 13:42:00,
2013-12-18 08:52:00,32.0,17.0,-100.00,WNW,284,5.0,17.0,53,0.00,,,0.00,13.000000,,2013-12-18 13:52:00,
2013-12-18 09:02:00,32.0,17.0,-100.00,WNW,284,5.0,17.0,53,0.00,,,0.00,13.000000,,2013-12-18 14:02:00,
2013-12-18 09:11:00,32.0,17.0,-100.00,WNW,284,5.0,17.0,53,0.00,,,0.00,13.000000,,2013-12-18 14:11:00,
2013-12-18 09:42:00,36.0,18.0,-100.00,WNW,285,6.0,15.0,48,0.00,,,0.00,123.000000,,2013-12-18 14:42:00,
2013-12-18 09:52:00,36.0,18.0,-100.00,WNW,285,6.0,15.0,48,0.00,,,0.00,123.000000,,2013-12-18 14:52:00,
2013-12-18 10:02:00,36.0,18.0,-100.00,WNW,285,6.0,15.0,48,0.00,,,0.00,123.000000,,2013-12-18 15:02:00,
2013-12-18 10:12:00,36.0,18.0,-100.00,WNW,285,6.0,15.0,48,0.00,,,0.00,123.000000,,2013-12-18 15:12:00,
2013-12-18 10:13:00,38.0,20.0,-100.00,WNW,282,6.0,15.0,47,0.00,,,0.00,308.000000,,2013-12-18 15:13:00,
2013-12-18 10:44:00,38.0,20.0,-100.00,WNW,282,6.0,15.0,47,0.00,,,0.00,308.000000,,2013-12-18 15:44:00,
2013-12-18 10:54:00,38.0,20.0,-100.00,WNW,282,6.0,15.0,47,0.00,,,0.00,308.000000,,2013-12-18 15:54:00,
2013-12-18 11:04:00,38.0,20.0,-100.00,WNW,282,6.0,15.0,47,0.00,,,0.00,308.000000,,2013-12-18 16:04:00,
2013-12-18 11:13:00,39.0,20.0,-100.00,West,274,11.0,24.0,47,0.00,,,0.00,412.000000,,2013-12-18 16:13:00,
2013-12-18 11:42:00,39.0,20.0,-100.00,West,274,11.0,24.0,47,0.00,,,0.00,412.000000,,2013-12-18 16:42:00,
2013-12-18 11:53:00,39.0,20.0,-100.00,West,274,11.0,24.0,47,0.00,,,0.00,412.000000,,2013-12-18 16:53:00,
2013-12-18 12:02:00,39.0,20.0,-100.00,West,274,11.0,24.0,47,0.00,,,0.00,412.000000,,2013-12-18 17:02:00,
2013-12-18 12:42:00,36.0,19.0,-100.00,West,266,10.0,20.0,50,0.00,,,0.00,233.000000,,2013-12-18 17:42:00,
2013-12-18 12:52:00,36.0,19.0,-100.00,West,266,10.0,20.0,50,0.00,,,0.00,233.000000,,2013-12-18 17:52:00,
2013-12-18 13:02:00,36.0,19.0,-100.00,West,266,10.0,20.0,50,0.00,,,0.00,233.000000,,2013-12-18 18:02:00,
2013-12-18 13:12:00,36.0,19.0,-100.00,West,266,10.0,20.0,50,0.00,,,0.00,233.000000,,2013-12-18 18:12:00,
2013-12-18 13:42:00,37.0,20.0,-100.00,West,266,8.0,15.0,49,0.00,,,0.00,251.000000,,2013-12-18 18:42:00,
2013-12-18 13:52:00,37.0,20.0,-100.00,West,266,8.0,15.0,49,0.00,,,0.00,251.000000,,2013-12-18 18:52:00,
2013-12-18 14:02:00,37.0,20.0,-100.00,West,266,8.0,15.0,49,0.00,,,0.00,251.000000,,2013-12-18 19:02:00,
2013-12-18 14:11:00,37.0,20.0,-100.00,West,266,8.0,15.0,49,0.00,,,0.00,251.000000,,2013-12-18 19:11:00,
2013-12-18 14:42:00,37.0,20.0,-100.00,West,267,9.0,17.0,50,0.00,,,0.00,180.000000,,2013-12-18 19:42:00,
2013-12-18 14:52:00,37.0,20.0,-100.00,West,267,9.0,17.0,50,0.00,,,0.00,180.000000,,2013-12-18 19:52:00,
2013-12-18 15:02:00,37.0,20.0,-100.00,West,267,9.0,17.0,50,0.00,,,0.00,180.000000,,2013-12-18 20:02:00,
2013-12-18 15:12:00,37.0,20.0,-100.00,West,267,9.0,17.0,50,0.00,,,0.00,180.000000,,2013-12-18 20:12:00,
2013-12-18 15:42:00,39.0,20.0,-100.00,West,262,10.0,19.0,46,0.00,,,0.00,251.000000,,2013-12-18 20:42:00,
2013-12-18 15:53:00,39.0,20.0,-100.00,West,262,10.0,19.0,46,0.00,,,0.00,251.000000,,2013-12-18 20:53:00,
2013-12-18 16:03:00,39.0,20.0,-100.00,West,262,10.0,19.0,46,0.00,,,0.00,251.000000,,2013-12-18 21:03:00,
2013-12-18 16:11:00,39.0,20.0,-100.00,West,262,10.0,19.0,46,0.00,,,0.00,251.000000,,2013-12-18 21:11:00,
2013-12-18 16:43:00,37.0,19.0,-100.00,WNW,294,7.0,19.0,47,0.00,,,0.00,142.000000,,2013-12-18 21:43:00,
2013-12-18 16:53:00,37.0,19.0,-100.00,WNW,294,7.0,19.0,47,0.00,,,0.00,142.000000,,2013-12-18 21:53:00,
2013-12-18 17:03:00,37.0,19.0,-100.00,WNW,294,7.0,19.0,47,0.00,,,0.00,142.000000,,2013-12-18 22:03:00,
2013-12-18 17:12:00,37.0,19.0,-100.00,WNW,294,7.0,19.0,47,0.00,,,0.00,142.000000,,2013-12-18 22:12:00,
2013-12-18 17:43:00,34.0,19.0,-100.00,WNW,293,8.0,16.0,54,0.00,,,0.00,12.000000,,2013-12-18 22:43:00,
2013-12-18 17:53:00,34.0,19.0,-100.00,WNW,293,8.0,16.0,54,0.00,,,0.00,12.000000,,2013-12-18 22:53:00,
2013-12-18 18:02:00,34.0,19.0,-100.00,WNW,293,8.0,16.0,54,0.00,,,0.00,12.000000,,2013-12-18 23:02:00,
2013-12-18 18:12:00,34.0,19.0,-100.00,WNW,293,8.0,16.0,54,0.00,,,0.00,12.000000,,2013-12-18 23:12:00,
2013-12-18 18:42:00,33.0,19.0,-100.00,WNW,289,6.0,12.0,55,0.00,,,0.00,0.000000,,2013-12-18 23:42:00,
2013-12-18 18:53:00,33.0,19.0,-100.00,WNW,289,6.0,12.0,55,0.00,,,0.00,0.000000,,2013-12-18 23:53:00,
2013-12-18 19:02:00,33.0,19.0,-100.00,WNW,289,6.0,12.0,55,0.00,,,0.00,0.000000,,2013-12-19 00:02:00,
2013-12-18 19:11:00,33.0,19.0,-100.00,WNW,289,6.0,12.0,55,0.00,,,0.00,0.000000,,2013-12-19 00:11:00,
2013-12-18 19:42:00,31.0,18.0,-100.00,East,97,3.0,10.0,59,0.00,,,0.00,0.000000,,2013-12-19 00:42:00,
2013-12-18 19:52:00,31.0,18.0,-100.00,East,97,3.0,10.0,59,0.00,,,0.00,0.000000,,2013-12-19 00:52:00,
2013-12-18 20:02:00,31.0,18.0,-100.00,East,97,3.0,10.0,59,0.00,,,0.00,0.000000,,2013-12-19 01:02:00,
2013-12-18 20:12:00,31.0,18.0,-100.00,East,97,3.0,10.0,59,0.00,,,0.00,0.000000,,2013-12-19 01:12:00,
2013-12-18 20:42:00,28.0,18.0,-100.00,SSE,162,2.0,5.0,65,0.00,,,0.00,0.000000,,2013-12-19 01:42:00,
2013-12-18 20:52:00,28.0,18.0,-100.00,SSE,162,2.0,5.0,65,0.00,,,0.00,0.000000,,2013-12-19 01:52:00,
2013-12-18 21:01:00,28.0,18.0,-100.00,SSE,162,2.0,5.0,65,0.00,,,0.00,0.000000,,2013-12-19 02:01:00,
2013-12-18 21:11:00,28.0,18.0,-100.00,SSE,162,2.0,5.0,65,0.00,,,0.00,0.000000,,2013-12-19 02:11:00,
2013-12-18 21:52:00,29.0,19.0,-100.00,West,276,3.0,5.0,65,0.00,,,0.00,0.000000,,2013-12-19 02:52:00,
2013-12-18 22:02:00,29.0,19.0,-100.00,West,276,3.0,5.0,65,0.00,,,0.00,0.000000,,2013-12-19 03:02:00,
2013-12-18 22:12:00,29.0,19.0,-100.00,West,276,3.0,5.0,65,0.00,,,0.00,0.000000,,2013-12-19 03:12:00,
2013-12-18 22:13:00,28.0,18.0,-100.00,South,185,3.0,5.0,65,0.00,,,0.00,0.000000,,2013-12-19 03:13:00,
2013-12-18 22:43:00,28.0,18.0,-100.00,South,185,3.0,5.0,65,0.00,,,0.00,0.000000,,2013-12-19 03:43:00,
2013-12-18 22:54:00,28.0,18.0,-100.00,South,185,3.0,5.0,65,0.00,,,0.00,0.000000,,2013-12-19 03:54:00,
2013-12-18 23:03:00,28.0,18.0,-100.00,South,185,3.0,5.0,65,0.00,,,0.00,0.000000,,2013-12-19 04:03:00,
2013-12-18 23:43:00,28.0,19.0,-100.00,SSW,212,4.0,6.0,69,0.00,,,0.00,0.000000,,2013-12-19 04:43:00,
2013-12-18 23:53:00,28.0,19.0,-100.00,SSW,212,4.0,6.0,69,0.00,,,0.00,0.000000,,2013-12-19 04:53:00,